Alpine Link — V7SZ7 — position and weather

sailwx.info

Track history (hours):
 
Tides and Currents Weather Stations Pressure Air Temp Water Temp Dewpoint Dewpoint Depression Visibility Wind Speed Wind Dir Waves Ship Positions

Alpine Link

Last reported at 2016-Nov-19 22:34 UTC. Time now 2016-Dec-05 00:22 UTC.
Position S 00°14' W 051°19'.
Warning: this ship's position is 15 days out of date.

Length 183 m; draft 8 m.

Type: Tanker. MMSI: 538003758.

Date/timePositionNaut miles runAvg speedWind from/ knotsBaromVisibWave heightAir tempDewpointWater temp
2016-Nov-19 22:34S 00°14' W 051°19'16 7.9
2016-Nov-19 20:33S 00°04' W 051°06'0 0.0
2016-Nov-19 19:33S 00°04' W 051°06'0 0.1
2016-Nov-19 17:33S 00°04' W 051°06'0 0.1
2016-Nov-19 16:27S 00°04' W 051°06'0 0.0
2016-Nov-19 14:27S 00°04' W 051°06'0 0.1
2016-Nov-19 11:33S 00°04' W 051°06'0 0.0
2016-Nov-19 09:33S 00°04' W 051°06'0 0.0
2016-Nov-19 07:30S 00°04' W 051°06'0 0.1
2016-Nov-19 05:30S 00°04' W 051°06'0 0.0
2016-Nov-19 04:30S 00°04' W 051°06'1 1.3
2016-Nov-19 03:34S 00°03' W 051°05'9 9.4
2016-Nov-19 02:34N 00°04' W 050°60'1110.7
2016-Nov-19 01:33N 00°10' W 050°51'2311.6
2016-Nov-18 23:33N 00°21' W 050°30'  
2016-Nov-14 08:33N 10°44' W 061°46'24 8.0
2016-Nov-14 05:33N 10°21' W 061°42'11 2.1
2016-Nov-14 00:23N 10°22' W 061°31'0 0.0
2016-Nov-13 23:29N 10°22' W 061°31'0 0.0
2016-Nov-13 22:32N 10°22' W 061°31'0 0.0
2016-Nov-13 19:32N 10°22' W 061°31'0 0.0
2016-Nov-13 18:32N 10°22' W 061°31'0 0.0
2016-Nov-13 17:32N 10°22' W 061°31'0 0.0
2016-Nov-13 15:32N 10°22' W 061°31'0 0.0
2016-Nov-13 13:32N 10°22' W 061°31'0 0.0
2016-Nov-13 10:32N 10°22' W 061°31'0 0.0
2016-Nov-13 08:32N 10°22' W 061°31'5 1.4
2016-Nov-13 05:05N 10°19' W 061°35'1610.6
2016-Nov-13 03:33N 10°20' W 061°52'51712.6
2016-Nov-11 10:33N 17°39' W 066°34'1313.2
2016-Nov-11 09:33N 17°50' W 066°42'  
Track history (hours):
 
Tides and Currents Weather Stations Pressure Air Temp Water Temp Dewpoint Dewpoint Depression Visibility Wind Speed Wind Dir Waves Ship Positions

Alpine Link

Last reported at 2016-Nov-19 22:34 UTC. Time now 2016-Dec-05 00:22 UTC.
Position S 00°14' W 051°19'.
Warning: this ship's position is 15 days out of date.

Length 183 m; draft 8 m.

Type: Tanker. MMSI: 538003758.

Date/timePositionNaut miles runAvg speedWind from/ knotsBaromVisibWave heightAir tempDewpointWater temp
2016-Nov-19 22:34S 00°14' W 051°19'16 7.9
2016-Nov-19 20:33S 00°04' W 051°06'0 0.0
2016-Nov-19 19:33S 00°04' W 051°06'0 0.1
2016-Nov-19 17:33S 00°04' W 051°06'0 0.1
2016-Nov-19 16:27S 00°04' W 051°06'0 0.0
2016-Nov-19 14:27S 00°04' W 051°06'0 0.1
2016-Nov-19 11:33S 00°04' W 051°06'0 0.0
2016-Nov-19 09:33S 00°04' W 051°06'0 0.0
2016-Nov-19 07:30S 00°04' W 051°06'0 0.1
2016-Nov-19 05:30S 00°04' W 051°06'0 0.0
2016-Nov-19 04:30S 00°04' W 051°06'1 1.3
2016-Nov-19 03:34S 00°03' W 051°05'9 9.4
2016-Nov-19 02:34N 00°04' W 050°60'1110.7
2016-Nov-19 01:33N 00°10' W 050°51'2311.6
2016-Nov-18 23:33N 00°21' W 050°30'  
2016-Nov-14 08:33N 10°44' W 061°46'24 8.0
2016-Nov-14 05:33N 10°21' W 061°42'11 2.1
2016-Nov-14 00:23N 10°22' W 061°31'0 0.0
2016-Nov-13 23:29N 10°22' W 061°31'0 0.0
2016-Nov-13 22:32N 10°22' W 061°31'0 0.0
2016-Nov-13 19:32N 10°22' W 061°31'0 0.0
2016-Nov-13 18:32N 10°22' W 061°31'0 0.0
2016-Nov-13 17:32N 10°22' W 061°31'0 0.0
2016-Nov-13 15:32N 10°22' W 061°31'0 0.0
2016-Nov-13 13:32N 10°22' W 061°31'0 0.0
2016-Nov-13 10:32N 10°22' W 061°31'0 0.0
2016-Nov-13 08:32N 10°22' W 061°31'5 1.4
2016-Nov-13 05:05N 10°19' W 061°35'1610.6
2016-Nov-13 03:33N 10°20' W 061°52'51712.6
2016-Nov-11 10:33N 17°39' W 066°34'1313.2
2016-Nov-11 09:33N 17°50' W 066°42'  

Dump ship's entire track history